• Join FlightAware (Why Join?)
  • Login
  • US Flag 
06:52PM EST


 

Airport Tracker/Info


-or-


 

Live Flight TrackerFlight Track Log ✈ WAE5 ✈ 13-May-2013 ✈ KSLC - KPIH

Flight Track Log - Related Links

Times and Time Zones

All times are in EDT time to prevent confusion due to time zone crossing. See the WAE5 flight status page for this flight to view local times or setup timezone preferences in your user account.

Time Position Orientation Groundspeed Altitude Reporting Facility
EDT Latitude Longitude Course Direction KTS MPH feet Rate Location/Type
08:42AM 40.7700 -111.9692 290° West 120 138 4,700  Level Salt Lake Center
08:43AM 40.7778 -111.9975 290° West 132 152 5,100 540 Climbing Salt Lake Center
08:43AM 40.7867 -112.0039 331° Northwest 130 150 5,300 600 Climbing Salt Lake Center
08:44AM 40.8058 -112.0306 314° West 139 160 5,700 540 Climbing Salt Lake Center
08:44AM 40.8142 -112.0400 319° Northwest 138 159 5,900 660 Climbing Salt Lake Center
08:45AM 40.8344 -112.0664 315° West 140 161 6,400 660 Climbing Salt Lake Center
08:45AM 40.8419 -112.0744 321° Northwest 138 159 6,600 660 Climbing Salt Lake Center
08:46AM 40.8603 -112.1000 313° West 130 150 7,100 780 Climbing Salt Lake Center
08:46AM 40.8728 -112.1136 321° Northwest 129 148 7,400 660 Climbing Salt Lake Center
08:47AM 40.8883 -112.1331 317° Northwest 129 148 7,800 660 Climbing Salt Lake Center
08:47AM 40.8983 -112.1456 317° Northwest 127 146 8,100 660 Climbing Salt Lake Center
08:48AM 40.9142 -112.1669 314° West 128 147 8,500 600 Climbing Salt Lake Center
08:48AM 40.9236 -112.1806 313° West 130 150 8,700 600 Climbing Salt Lake Center
08:49AM 40.9408 -112.2033 315° West 132 152 9,100 540 Climbing Salt Lake Center
08:49AM 40.9539 -112.2061 351° North 136 157 9,300 540 Climbing Salt Lake Center
08:50AM 40.9756 -112.2058 North 130 150 9,700 660 Climbing Salt Lake Center
08:50AM 40.9903 -112.2050 North 130 150 10,000 240 Climbing Salt Lake Center
08:51AM 41.0144 -112.2067 357° North 137 158 10,000  Level Salt Lake Center
08:51AM 41.0319 -112.2089 355° North 149 171 10,000  Level Salt Lake Center
08:52AM 41.0808 -112.2136 356° North 173 199 10,000  Level Salt Lake Center
08:53AM 41.1300 -112.2211 353° North 177 204 10,000  Level Salt Lake Center
08:54AM 41.1800 -112.2322 351° North 180 207 10,000  Level Salt Lake Center
08:55AM 41.2297 -112.2433 350° North 180 207 10,000  Level Salt Lake Center
08:56AM 41.2794 -112.2533 351° North 180 207 10,000  Level Salt Lake Center
08:57AM 41.3294 -112.2617 353° North 180 207 10,000  Level Salt Lake Center
08:58AM 41.3789 -112.2706 352° North 179 206 10,000  Level Salt Lake Center
08:59AM 41.4292 -112.2792 353° North 181 208 10,000  Level Salt Lake Center
09:00AM 41.4797 -112.2839 356° North 181 208 10,000  Level Salt Lake Center
09:01AM 41.5308 -112.2917 354° North 184 212 10,000  Level Salt Lake Center
09:02AM 41.5814 -112.2972 355° North 183 211 10,000  Level Salt Lake Center
09:03AM 41.6306 -112.3064 352° North 180 207 10,000  Level Salt Lake Center
09:05AM 41.6797 -112.3150 353° North 177 204 10,000  Level Salt Lake Center
09:06AM 41.7297 -112.3261 351° North 180 207 10,000  Level Salt Lake Center
09:07AM 41.7811 -112.3403 348° North 185 213 10,000  Level Salt Lake Center
09:08AM 41.8392 -112.3525 351° North 179 206 10,000  Level Salt Lake Center
09:09AM 41.8889 -112.3650 349° North 180 207 10,000  Level Salt Lake Center
09:10AM 41.9375 -112.3806 347° North 181 208 10,000  Level Salt Lake Center
09:11AM 41.9867 -112.3947 348° North 181 208 10,000  Level Salt Lake Center
09:12AM 42.0356 -112.4058 350° North 180 207 10,000  Level Salt Lake Center
09:13AM 42.0839 -112.4208 347° North 179 206 10,000  Level Salt Lake Center
09:14AM 42.1331 -112.4319 350° North 178 205 10,000  Level Salt Lake Center
09:15AM 42.1811 -112.4453 348° North 178 205 10,000  Level Salt Lake Center
09:16AM 42.2292 -112.4572 350° North 177 204 10,000  Level Salt Lake Center
09:17AM 42.2767 -112.4692 349° North 175 201 10,000  Level Salt Lake Center
09:18AM 42.3242 -112.4819 349° North 175 201 10,000  Level Salt Lake Center
09:19AM 42.3728 -112.4942 349° North 176 203 10,000  Level Salt Lake Center
09:20AM 42.4200 -112.5083 348° North 176 203 10,000  Level Salt Lake Center
09:21AM 42.4786 -112.5236 349° North 177 204 10,000  Level Salt Lake Center
09:22AM 42.5275 -112.5361 349° North 178 205 10,000  Level Salt Lake Center
09:23AM 42.5758 -112.5500 348° North 179 206 10,000  Level Salt Lake Center
09:24AM 42.6239 -112.5611 350° North 177 204 10,000  Level Salt Lake Center